9TX5 weather

Camp Bullis Als (Cals) Airport
San Antonio, Texas, United States

Public forecast

Using degrees Fahrenheit for public forecast. Weather courtesy of forecast.io.

Closest aviation weather report (METAR) to Camp Bullis Als (Cals) Airport

Closest report is Boerne Stage Field, 8.3 nm (15.4 km) W. Retrieved 2019/11/21 23:35 UTC (0 seconds ago):

K5C1 212335Z AUTO 00000KT 10SM BKN037 22/17 A2991 RMK AO1

Closest aviation forecast (TAF) to Camp Bullis Als (Cals) Airport

Closest forecast is San Antonio International Airport, 13.1 nm (24.3 km) SSE. Retrieved 2019/11/21 18:42 UTC (5 hours ago):

TAF KSAT 211740Z 2118/2224 16007KT P6SM BKN022 OVC035 FM211900 15011KT P6SM BKN035 FM220300 15009KT P6SM BKN015 FM220900 17006KT 6SM BR OVC007 FM221200 17004KT 5SM BR VCSH OVC004 FM221600 36009KT P6SM VCSH OVC011 FM222100 35012KT P6SM OVC025